PWSweather.com
Personal Weather Stations
Station Observations
KPAEXPOR2
Wellington Estates, Export, PA 15632

Wellington EstatesExport, PA 15632

Lat: 40.446, Lon: -79.592

Elevation: 1286

Station Type: PWS1000-TD

http://www.westmorelandweather.com

Latest ConditionsUpdated 11:15:02 AM EST Monday, Mar 2, 2015
Currently Today's Max Today's Min Today's Average
Temperature 26.0°F-3.3°C 32.3°F0.2°C 21.5°F-5.8°C 26.9°F-2.8°C
Dew Point 9.5°F-12.5°C 32.1°F0.1°C 9.5°F-12.5°C 21.4°F-5.9°C
Winds Calm Calm 3.9 mph SW6.3 kmh SW - 0.7 mph 1.1 kmh
Wind Gusts -- 6.9 mph11.1 kmh - -
Humidity 49% 99% 49% 80%
Pressure 30.41 in1029.8 mb 30.41 in1029.8 mb 30.15 in1021.0 mb -
Precipitation - 0.01 in0.3 mm - -
Hour Temp Dew Point Humidity Winds Wind Gusts Pressure Precip Precip Rate Daily Precip Total
11:15 AM 26.0°F-3.3°C 9.5°F-12.5°C 49% Calm Calm -- 30.41 in1029.8 mb 0.00 in0.0 mm 0.00 in/hr0.0 mm/hr 0.01 in0.3 mm
11:00 AM 26.2°F-3.2°C 11.0°F-11.7°C 52% Calm Calm -- 30.41 in1029.8 mb 0.00 in0.0 mm 0.00 in/hr0.0 mm/hr 0.01 in0.3 mm
10:45 AM 26.2°F-3.2°C 11.5°F-11.4°C 53% Calm Calm -- 30.40 in1029.5 mb 0.00 in0.0 mm 0.00 in/hr0.0 mm/hr 0.01 in0.3 mm
10:30 AM 25.9°F-3.4°C 11.5°F-11.4°C 54% Calm Calm -- 30.40 in1029.5 mb 0.00 in0.0 mm 0.00 in/hr0.0 mm/hr 0.01 in0.3 mm
10:15 AM 24.8°F-4.0°C 12.1°F-11.1°C 58% Calm Calm -- 30.39 in1029.1 mb 0.00 in0.0 mm 0.00 in/hr0.0 mm/hr 0.01 in0.3 mm
10:00 AM 24.2°F-4.3°C 12.0°F-11.1°C 59% Calm Calm -- 30.39 in1029.1 mb 0.00 in0.0 mm 0.00 in/hr0.0 mm/hr 0.01 in0.3 mm
09:45 AM 24.1°F-4.4°C 11.5°F-11.4°C 58% Calm Calm -- 30.38 in1028.8 mb 0.00 in0.0 mm 0.00 in/hr0.0 mm/hr 0.01 in0.3 mm
09:30 AM 24.4°F-4.2°C 12.9°F-10.6°C 61% Calm Calm -- 30.38 in1028.8 mb 0.00 in0.0 mm 0.00 in/hr0.0 mm/hr 0.01 in0.3 mm
09:15 AM 24.6°F-4.1°C 13.8°F-10.1°C 63% Calm Calm -- 30.38 in1028.8 mb 0.00 in0.0 mm 0.00 in/hr0.0 mm/hr 0.01 in0.3 mm
09:00 AM 23.9°F-4.5°C 13.9°F-10.1°C 65% Calm Calm -- 30.38 in1028.8 mb 0.00 in0.0 mm 0.00 in/hr0.0 mm/hr 0.01 in0.3 mm
08:45 AM 22.6°F-5.2°C 15.3°F-9.3°C 73% Calm Calm -- 30.38 in1028.8 mb 0.00 in0.0 mm 0.00 in/hr0.0 mm/hr 0.01 in0.3 mm
08:30 AM 22.1°F-5.5°C 15.4°F-9.2°C 75% Calm Calm -- 30.38 in1028.8 mb 0.00 in0.0 mm 0.00 in/hr0.0 mm/hr 0.01 in0.3 mm
08:15 AM 21.5°F-5.8°C 15.8°F-9.0°C 78% Calm Calm -- 30.38 in1028.8 mb 0.00 in0.0 mm 0.00 in/hr0.0 mm/hr 0.01 in0.3 mm
08:00 AM 21.9°F-5.6°C 16.1°F-8.8°C 78% Calm Calm -- 30.37 in1028.4 mb 0.00 in0.0 mm 0.00 in/hr0.0 mm/hr 0.01 in0.3 mm
07:45 AM 22.1°F-5.5°C 15.7°F-9.1°C 76% Calm Calm -- 30.36 in1028.1 mb 0.00 in0.0 mm 0.00 in/hr0.0 mm/hr 0.01 in0.3 mm
07:30 AM 22.8°F-5.1°C 15.8°F-9.0°C 74% Calm Calm -- 30.34 in1027.4 mb 0.00 in0.0 mm 0.00 in/hr0.0 mm/hr 0.01 in0.3 mm
07:15 AM 22.8°F-5.1°C 15.2°F-9.3°C 72% Calm Calm -- 30.33 in1027.1 mb 0.00 in0.0 mm 0.00 in/hr0.0 mm/hr 0.01 in0.3 mm
07:00 AM 23.0°F-5.0°C 15.3°F-9.3°C 72% Calm Calm -- 30.32 in1026.8 mb 0.00 in0.0 mm 0.00 in/hr0.0 mm/hr 0.01 in0.3 mm
06:45 AM 23.3°F-4.8°C 16.0°F-8.9°C 73% Calm Calm -- 30.31 in1026.4 mb 0.00 in0.0 mm 0.00 in/hr0.0 mm/hr 0.01 in0.3 mm
06:30 AM 24.1°F-4.4°C 17.3°F-8.2°C 75% Calm Calm -- 30.30 in1026.1 mb 0.00 in0.0 mm 0.00 in/hr0.0 mm/hr 0.01 in0.3 mm
06:15 AM 24.4°F-4.2°C 18.0°F-7.8°C 76% Calm Calm -- 30.28 in1025.4 mb 0.00 in0.0 mm 0.00 in/hr0.0 mm/hr 0.01 in0.3 mm
06:00 AM 24.8°F-4.0°C 18.3°F-7.6°C 76% Calm Calm -- 30.27 in1025.1 mb 0.00 in0.0 mm 0.00 in/hr0.0 mm/hr 0.01 in0.3 mm
05:45 AM 25.3°F-3.7°C 19.2°F-7.1°C 77% Calm Calm -- 30.26 in1024.7 mb 0.00 in0.0 mm 0.00 in/hr0.0 mm/hr 0.01 in0.3 mm
05:30 AM 25.9°F-3.4°C 20.9°F-6.2°C 81% Calm Calm -- 30.24 in1024.0 mb 0.00 in0.0 mm 0.00 in/hr0.0 mm/hr 0.01 in0.3 mm
05:15 AM 26.2°F-3.2°C 21.5°F-5.8°C 82% Calm Calm -- 30.22 in1023.4 mb 0.00 in0.0 mm 0.00 in/hr0.0 mm/hr 0.01 in0.3 mm
05:00 AM 26.8°F-2.9°C 22.6°F-5.2°C 84% Calm Calm -- 30.22 in1023.4 mb 0.00 in0.0 mm 0.00 in/hr0.0 mm/hr 0.01 in0.3 mm
04:45 AM 27.5°F-2.5°C 23.9°F-4.5°C 86% Calm Calm -- 30.21 in1023.0 mb 0.00 in0.0 mm 0.00 in/hr0.0 mm/hr 0.01 in0.3 mm
04:30 AM 28.2°F-2.1°C 25.4°F-3.7°C 89% Calm Calm -- 30.20 in1022.7 mb 0.00 in0.0 mm 0.00 in/hr0.0 mm/hr 0.01 in0.3 mm
04:15 AM 28.4°F-2.0°C 25.8°F-3.4°C 90% Calm Calm -- 30.19 in1022.4 mb 0.00 in0.0 mm 0.00 in/hr0.0 mm/hr 0.01 in0.3 mm
04:00 AM 28.7°F-1.8°C 26.5°F-3.1°C 91% Calm Calm -- 30.18 in1022.0 mb 0.00 in0.0 mm 0.00 in/hr0.0 mm/hr 0.01 in0.3 mm
03:45 AM 28.9°F-1.7°C 26.9°F-2.8°C 92% Calm Calm -- 30.18 in1022.0 mb 0.00 in0.0 mm 0.00 in/hr0.0 mm/hr 0.01 in0.3 mm
03:30 AM 29.3°F-1.5°C 27.5°F-2.5°C 93% Calm Calm -- 30.16 in1021.3 mb 0.01 in0.3 mm 0.00 in/hr0.0 mm/hr 0.01 in0.3 mm
03:15 AM 29.5°F-1.4°C 28.2°F-2.1°C 95% Calm Calm -- 30.16 in1021.3 mb 0.01 in0.3 mm 0.00 in/hr0.0 mm/hr 0.01 in0.3 mm
03:00 AM 30.0°F-1.1°C 29.0°F-1.7°C 96% Calm Calm -- 30.15 in1021.0 mb 0.01 in0.3 mm 0.00 in/hr0.0 mm/hr 0.01 in0.3 mm
02:45 AM 30.4°F-0.9°C 29.6°F-1.3°C 97% Calm Calm -- 30.16 in1021.3 mb 0.01 in0.3 mm 0.04 in/hr1.0 mm/hr 0.01 in0.3 mm
02:30 AM 31.1°F-0.5°C 30.3°F-0.9°C 97% Calm Calm -- 30.16 in1021.3 mb 0.00 in0.0 mm 0.00 in/hr0.0 mm/hr 0.02 in0.5 mm
02:15 AM 31.1°F-0.5°C 30.3°F-0.9°C 97% 1.7 mph S2.7 kmh S 4.5 mph7.2 kmh 30.16 in1021.3 mb 0.00 in0.0 mm 0.00 in/hr0.0 mm/hr 0.02 in0.5 mm
02:00 AM 31.3°F-0.4°C 30.8°F-0.7°C 98% 2.4 mph W3.9 kmh W 5.4 mph8.7 kmh 30.17 in1021.7 mb 0.00 in0.0 mm 0.00 in/hr0.0 mm/hr 0.02 in0.5 mm
01:45 AM 31.4°F-0.3°C 31.0°F-0.6°C 98% 1.8 mph SSW2.9 kmh SSW 3.8 mph6.1 kmh 30.17 in1021.7 mb 0.00 in0.0 mm 0.00 in/hr0.0 mm/hr 0.02 in0.5 mm
01:30 AM 31.4°F-0.3°C 31.0°F-0.6°C 98% 3.7 mph S6.0 kmh S 5.4 mph8.7 kmh 30.17 in1021.7 mb 0.00 in0.0 mm 0.00 in/hr0.0 mm/hr 0.02 in0.5 mm
01:15 AM 31.4°F-0.3°C 31.0°F-0.6°C 98% 3.8 mph SW6.1 kmh SW 5.4 mph8.7 kmh 30.17 in1021.7 mb 0.00 in0.0 mm 0.00 in/hr0.0 mm/hr 0.02 in0.5 mm
01:00 AM 31.6°F-0.2°C 31.1°F-0.5°C 98% 3.9 mph SW6.3 kmh SW 6.0 mph9.7 kmh 30.17 in1021.7 mb 0.00 in0.0 mm 0.00 in/hr0.0 mm/hr 0.02 in0.5 mm
12:45 AM 31.8°F-0.1°C 31.3°F-0.4°C 98% 3.4 mph SSE5.5 kmh SSE 6.0 mph9.7 kmh 30.17 in1021.7 mb 0.01 in0.3 mm 0.00 in/hr0.0 mm/hr 0.02 in0.5 mm
12:30 AM 31.8°F-0.1°C 31.3°F-0.4°C 98% 3.2 mph S5.1 kmh S 5.4 mph8.7 kmh 30.16 in1021.3 mb 0.01 in0.3 mm 0.00 in/hr0.0 mm/hr 0.02 in0.5 mm
12:15 AM 32.2°F0.1°C 31.9°F-0.1°C 99% 3.6 mph NW5.8 kmh NW 5.4 mph8.7 kmh 30.16 in1021.3 mb 0.01 in0.3 mm 0.00 in/hr0.0 mm/hr 0.02 in0.5 mm
12:00 AM 32.3°F0.2°C 32.1°F0.1°C 99% 3.0 mph S4.8 kmh S 6.9 mph11.1 kmh 30.16 in1021.3 mb 0.02 in0.5 mm 0.00 in/hr0.0 mm/hr 0.02 in0.5 mm